Time;durP1;ratioP1;P1;durP2;ratioP2;P2;SDS_P1;SDS_P2;PMS_P1;PMS_P2;Temp;Humidity;BMP_temperature;BMP_pressure;BME280_temperature;BME280_humidity;BME280_pressure;Samples;Min_cycle;Max_cycle;Signal;HPM_P1;HPM_P2
2022/02/15 00:00:30;;;;;;;14.27;2.17;;;9.40;99.90;;;;;;5070476;28;20747;-69
2022/02/15 00:02:56;;;;;;;13.18;2.20;;;9.40;99.90;;;;;;5069700;28;20506;-70
2022/02/15 00:05:22;;;;;;;15.47;1.87;;;9.40;99.90;;;;;;5069609;28;20487;-69
2022/02/15 00:07:47;;;;;;;11.57;2.22;;;9.40;99.90;;;;;;5068872;28;20419;-69
2022/02/15 00:10:13;;;;;;;13.60;1.90;;;9.40;99.90;;;;;;5069734;28;20918;-69
2022/02/15 00:12:39;;;;;;;13.52;1.83;;;9.40;99.90;;;;;;5069792;28;20399;-69
2022/02/15 00:15:07;;;;;;;14.02;2.00;;;9.40;99.90;;;;;;5070369;28;20457;-69
2022/02/15 00:17:37;;;;;;;10.93;1.85;;;9.40;99.90;;;;;;5069152;28;20441;-69
2022/02/15 00:20:05;;;;;;;15.48;2.10;;;9.30;99.90;;;;;;5069882;28;20491;-68
2022/02/15 00:22:31;;;;;;;12.73;2.00;;;9.30;99.90;;;;;;5066714;28;20419;-69
2022/02/15 00:24:56;;;;;;;13.50;2.20;;;9.30;99.90;;;;;;5067746;28;20412;-69
2022/02/15 00:27:22;;;;;;;19.13;2.40;;;9.30;99.90;;;;;;5050700;28;20504;-69
2022/02/15 00:29:48;;;;;;;13.30;2.17;;;9.30;99.90;;;;;;5068667;28;20469;-69
2022/02/15 00:32:14;;;;;;;13.17;2.37;;;9.30;99.90;;;;;;5067309;28;20419;-69
2022/02/15 00:34:40;;;;;;;16.25;2.33;;;9.20;99.90;;;;;;5070222;28;20427;-69
2022/02/15 00:37:06;;;;;;;12.80;2.00;;;9.20;99.90;;;;;;5068955;28;20435;-69
2022/02/15 00:39:31;;;;;;;15.10;2.20;;;9.10;99.90;;;;;;5049792;28;20418;-69
2022/02/15 00:42:00;;;;;;;16.50;2.22;;;9.10;99.90;;;;;;5034752;28;20403;-69
2022/02/15 00:44:31;;;;;;;12.38;2.08;;;9.10;99.90;;;;;;5051499;28;20418;-69
2022/02/15 00:46:58;;;;;;;16.33;2.17;;;9.10;99.90;;;;;;5052037;28;20468;-69
2022/02/15 00:49:24;;;;;;;16.15;2.10;;;9.00;99.90;;;;;;5050090;28;20986;-69
2022/02/15 00:51:50;;;;;;;16.40;2.30;;;9.00;99.90;;;;;;5051664;28;20526;-69
2022/02/15 00:54:16;;;;;;;16.52;2.40;;;9.00;99.90;;;;;;5068879;28;20411;-69
2022/02/15 00:56:42;;;;;;;11.38;1.70;;;8.90;99.90;;;;;;5070417;28;20626;-69
2022/02/15 00:59:09;;;;;;;15.55;2.08;;;8.60;99.90;;;;;;5069226;28;20175;-69
2022/02/15 01:01:37;;;;;;;13.88;2.08;;;8.40;99.90;;;;;;5054279;28;20190;-69
2022/02/15 01:04:03;;;;;;;14.75;1.83;;;8.20;99.90;;;;;;5051435;28;20186;-69
2022/02/15 01:06:29;;;;;;;13.80;1.92;;;8.10;99.90;;;;;;5051535;28;20186;-69
2022/02/15 01:08:54;;;;;;;10.57;1.77;;;8.00;99.90;;;;;;5050388;28;20198;-69
2022/02/15 01:11:20;;;;;;;12.82;2.08;;;7.90;99.90;;;;;;5052249;28;20185;-69
2022/02/15 01:13:48;;;;;;;15.93;2.63;;;7.90;99.90;;;;;;5049144;28;20214;-68
2022/02/15 01:16:13;;;;;;;22.42;2.90;;;7.80;99.90;;;;;;5069003;28;20744;-68
2022/02/15 01:18:39;;;;;;;27.55;2.97;;;7.80;99.90;;;;;;5069365;28;20701;-68
2022/02/15 01:21:05;;;;;;;20.30;2.75;;;7.80;99.90;;;;;;5052485;28;20213;-68
2022/02/15 01:23:31;;;;;;;13.40;2.53;;;7.80;99.90;;;;;;5051243;28;20174;-68
2022/02/15 01:25:57;;;;;;;17.05;2.63;;;7.80;99.90;;;;;;5051402;28;20193;-68
2022/02/15 01:28:23;;;;;;;18.90;2.90;;;7.80;99.90;;;;;;5068397;28;20261;-68
2022/02/15 01:30:48;;;;;;;11.73;2.60;;;7.80;99.90;;;;;;5050487;28;20178;-68
2022/02/15 01:33:14;;;;;;;23.25;3.25;;;7.80;99.90;;;;;;5051140;28;20226;-69
2022/02/15 01:35:40;;;;;;;20.55;3.22;;;7.70;99.90;;;;;;5052069;28;20221;-68
2022/02/15 01:38:08;;;;;;;16.38;3.25;;;7.70;99.90;;;;;;5048868;28;20179;-68
2022/02/15 01:40:34;;;;;;;22.88;3.50;;;7.70;99.90;;;;;;5066901;28;20250;-70
2022/02/15 01:43:01;;;;;;;21.98;3.42;;;7.70;99.90;;;;;;5050499;28;20171;-70
2022/02/15 01:45:27;;;;;;;17.92;3.42;;;7.80;99.90;;;;;;5051996;28;20194;-70
2022/02/15 01:47:53;;;;;;;21.42;3.85;;;7.80;99.90;;;;;;5068721;28;20193;-70
2022/02/15 01:50:20;;;;;;;14.40;3.45;;;7.70;99.90;;;;;;5051850;28;20178;-69
2022/02/15 01:52:45;;;;;;;18.38;4.15;;;7.80;99.90;;;;;;5067092;28;20415;-69
2022/02/15 01:55:14;;;;;;;17.45;4.28;;;8.10;99.90;;;;;;5069910;28;20521;-69
2022/02/15 01:57:40;;;;;;;21.08;4.35;;;8.00;99.90;;;;;;5050380;28;20240;-69
2022/02/15 02:00:15;;;;;;;12.35;4.30;;;8.00;99.90;;;;;;5051689;28;20204;-69
2022/02/15 02:02:43;;;;;;;20.08;4.15;;;7.90;99.90;;;;;;5050681;28;20839;-69
2022/02/15 02:08:02;;;;;;;14.52;4.07;;;7.80;99.90;;;;;;5049916;28;20186;-70
2022/02/15 02:10:31;;;;;;;16.02;3.80;;;7.70;99.90;;;;;;5051501;28;20182;-69
2022/02/15 02:13:01;;;;;;;19.77;4.53;;;7.70;99.90;;;;;;5049171;28;20178;-70
2022/02/15 02:15:27;;;;;;;23.48;5.28;;;7.60;99.90;;;;;;5049907;28;20395;-71
2022/02/15 02:18:12;;;;;;;21.45;4.70;;;8.00;99.90;;;;;;5053583;28;20673;-69
2022/02/15 02:20:41;;;;;;;23.50;4.25;;;7.90;99.90;;;;;;5049928;28;20179;-70
2022/02/15 02:23:12;;;;;;;24.92;4.00;;;7.80;99.90;;;;;;5050320;28;20193;-69
2022/02/15 02:25:40;;;;;;;18.60;3.92;;;7.80;99.90;;;;;;5051694;28;20621;-70
2022/02/15 02:28:06;;;;;;;18.73;3.72;;;7.70;99.90;;;;;;5048978;28;20202;-70
2022/02/15 02:30:31;;;;;;;18.90;4.45;;;7.70;99.90;;;;;;5051300;28;20274;-70
2022/02/15 02:32:59;;;;;;;16.75;4.03;;;7.70;99.90;;;;;;5049671;28;20171;-70
2022/02/15 02:35:25;;;;;;;17.02;4.22;;;7.70;99.90;;;;;;5051027;28;20307;-70
2022/02/15 02:37:51;;;;;;;20.42;4.13;;;7.70;99.90;;;;;;5068402;28;20183;-70
2022/02/15 02:40:17;;;;;;;20.65;4.22;;;7.70;99.90;;;;;;5030245;28;20237;-70
2022/02/15 02:42:43;;;;;;;17.05;4.85;;;7.70;99.90;;;;;;5046433;28;20183;-70
2022/02/15 02:45:18;;;;;;;19.70;4.97;;;7.70;99.90;;;;;;5048335;28;20636;-70
2022/02/15 02:47:46;;;;;;;18.67;4.60;;;7.70;99.90;;;;;;5029015;28;20179;-70
2022/02/15 02:50:15;;;;;;;19.98;5.20;;;7.70;99.90;;;;;;5031223;28;20179;-70
2022/02/15 02:52:41;;;;;;;31.85;5.20;;;7.80;99.90;;;;;;5046654;28;20190;-69
2022/02/15 02:55:09;;;;;;;26.95;6.38;;;7.70;99.90;;;;;;5047290;28;20236;-68
2022/02/15 02:57:35;;;;;;;19.17;5.55;;;7.80;99.90;;;;;;5046543;28;20195;-67
2022/02/15 03:00:28;;;;;;;24.25;5.88;;;7.80;99.90;;;;;;5047881;28;20648;-68
2022/02/15 03:03:07;;;;;;;15.13;5.50;;;7.80;99.90;;;;;;5045756;28;20643;-68
2022/02/15 03:05:36;;;;;;;15.98;5.28;;;7.80;99.90;;;;;;5046809;28;20225;-69
2022/02/15 03:08:02;;;;;;;30.30;5.88;;;7.80;99.90;;;;;;5046897;28;20581;-69
2022/02/15 03:10:29;;;;;;;21.25;5.45;;;7.70;99.90;;;;;;5047114;28;20179;-68
2022/02/15 03:12:55;;;;;;;25.25;5.95;;;7.80;99.90;;;;;;5047928;28;20184;-69
2022/02/15 03:15:22;;;;;;;22.27;5.82;;;7.80;99.90;;;;;;5047591;28;20191;-68
2022/02/15 03:17:49;;;;;;;24.25;6.55;;;7.80;99.90;;;;;;5046511;28;20302;-68
2022/02/15 03:20:14;;;;;;;21.90;6.10;;;7.80;99.90;;;;;;5045719;28;20270;-68
2022/02/15 03:22:41;;;;;;;24.00;6.18;;;7.80;99.90;;;;;;5044864;28;20215;-68
2022/02/15 03:25:08;;;;;;;26.13;6.20;;;7.70;99.90;;;;;;5046648;28;20278;-68
2022/02/15 03:27:34;;;;;;;22.05;5.90;;;7.80;99.90;;;;;;5046366;28;20194;-68
2022/02/15 03:30:01;;;;;;;19.48;6.03;;;7.80;99.90;;;;;;5047045;28;20218;-68
2022/02/15 03:32:32;;;;;;;23.52;6.30;;;7.80;99.90;;;;;;5048636;28;20310;-68
2022/02/15 03:35:00;;;;;;;25.58;5.55;;;7.80;99.90;;;;;;5066804;28;20222;-68
2022/02/15 03:37:26;;;;;;;20.40;5.95;;;7.80;99.90;;;;;;5048064;28;20199;-68
2022/02/15 03:39:53;;;;;;;23.80;5.85;;;7.80;99.90;;;;;;5083071;28;20225;-68
2022/02/15 03:45:03;;;;;;;24.70;5.68;;;7.80;99.90;;;;;;5050926;28;20183;-70
2022/02/15 03:47:47;;;;;;;25.45;5.25;;;7.80;99.90;;;;;;5050024;28;20187;-70
2022/02/15 03:50:13;;;;;;;19.95;5.35;;;7.80;99.90;;;;;;5049744;28;20278;-70
2022/02/15 03:52:39;;;;;;;20.90;4.90;;;7.80;99.90;;;;;;5048097;28;20270;-70
2022/02/15 03:55:06;;;;;;;21.67;4.95;;;7.80;99.90;;;;;;5050378;28;20236;-70
2022/02/15 03:57:36;;;;;;;23.05;4.97;;;7.80;99.90;;;;;;5080309;28;20256;-70
2022/02/15 04:00:06;;;;;;;15.98;4.78;;;7.80;99.90;;;;;;5050160;28;20187;-70
2022/02/15 04:02:38;;;;;;;28.27;5.70;;;7.80;99.90;;;;;;5048419;28;20199;-70
2022/02/15 04:05:05;;;;;;;24.02;4.95;;;7.80;99.90;;;;;;5050197;28;20190;-70
2022/02/15 04:07:30;;;;;;;19.27;4.53;;;7.80;99.90;;;;;;5032457;28;20274;-70
2022/02/15 04:09:56;;;;;;;26.27;4.43;;;7.80;99.90;;;;;;5050471;28;20711;-70
2022/02/15 04:12:22;;;;;;;22.25;5.03;;;7.80;99.90;;;;;;5033884;28;20195;-70
2022/02/15 04:14:48;;;;;;;15.00;4.60;;;7.80;99.90;;;;;;5050484;28;20290;-70
2022/02/15 04:17:15;;;;;;;22.90;4.70;;;7.80;99.90;;;;;;5048564;28;20254;-70
2022/02/15 04:19:41;;;;;;;31.38;5.50;;;7.80;99.90;;;;;;5051128;28;20172;-70
2022/02/15 04:22:08;;;;;;;24.33;4.50;;;7.80;99.90;;;;;;5032528;28;20275;-70
2022/02/15 04:24:36;;;;;;;22.05;4.45;;;7.80;99.90;;;;;;5051385;28;20271;-71
2022/02/15 04:27:02;;;;;;;17.15;4.00;;;7.80;99.90;;;;;;5032922;28;20225;-70
2022/02/15 04:29:28;;;;;;;16.27;4.15;;;7.80;99.90;;;;;;5066216;28;20631;-70
2022/02/15 04:31:56;;;;;;;21.27;4.68;;;7.80;99.90;;;;;;5050178;28;20267;-71
2022/02/15 04:34:24;;;;;;;17.90;3.95;;;7.80;99.90;;;;;;5047609;28;20221;-70
2022/02/15 04:36:51;;;;;;;19.67;4.88;;;7.80;99.90;;;;;;5050095;28;20209;-69
2022/02/15 04:39:17;;;;;;;16.00;4.25;;;7.80;99.90;;;;;;5046589;28;20293;-70
2022/02/15 04:41:56;;;;;;;20.48;4.72;;;7.70;99.90;;;;;;5047794;28;20182;-70
2022/02/15 04:44:22;;;;;;;18.15;4.38;;;7.70;99.90;;;;;;5044191;28;20666;-70
2022/02/15 04:46:48;;;;;;;19.88;4.10;;;7.70;99.90;;;;;;5048759;28;20197;-69
2022/02/15 04:49:18;;;;;;;19.83;4.60;;;7.70;99.90;;;;;;5047402;28;20201;-70
2022/02/15 04:51:43;;;;;;;25.25;4.32;;;7.70;99.90;;;;;;5049488;28;20179;-70
2022/02/15 04:54:11;;;;;;;22.15;4.90;;;7.70;99.90;;;;;;5047312;28;20207;-69
2022/02/15 04:56:36;;;;;;;15.45;4.40;;;7.70;99.90;;;;;;5050346;28;20237;-70
2022/02/15 04:59:02;;;;;;;15.35;4.20;;;7.70;99.90;;;;;;5047690;28;20183;-70
2022/02/15 05:01:28;;;;;;;24.58;4.50;;;7.70;99.90;;;;;;5047261;28;20231;-71
2022/02/15 05:03:59;;;;;;;20.75;3.70;;;7.80;99.90;;;;;;5046635;28;20183;-70
2022/02/15 05:06:25;;;;;;;17.35;3.67;;;7.80;99.90;;;;;;5049392;28;20211;-70
2022/02/15 05:08:51;;;;;;;22.70;4.13;;;7.80;99.90;;;;;;5043829;28;20437;-70
2022/02/15 05:11:17;;;;;;;18.70;3.47;;;8.20;99.90;;;;;;5047618;28;20221;-70
2022/02/15 05:13:48;;;;;;;18.25;3.13;;;8.20;99.90;;;;;;5047802;28;20187;-70
2022/02/15 05:16:25;;;;;;;20.73;2.75;;;8.10;99.90;;;;;;5047263;28;20210;-71
2022/02/15 05:19:02;;;;;;;14.73;3.00;;;8.00;99.90;;;;;;5045925;28;20187;-70
2022/02/15 05:21:30;;;;;;;20.52;2.90;;;8.00;99.90;;;;;;5047046;28;20183;-71
2022/02/15 05:23:58;;;;;;;24.00;3.22;;;7.90;99.90;;;;;;5062426;28;20187;-70
2022/02/15 05:26:36;;;;;;;17.85;3.03;;;7.90;99.90;;;;;;5047262;28;20205;-70
2022/02/15 05:29:04;;;;;;;14.35;2.42;;;7.90;99.90;;;;;;5046813;28;20179;-70
2022/02/15 05:31:37;;;;;;;20.88;2.70;;;7.90;99.90;;;;;;5047589;28;20236;-70
2022/02/15 05:34:07;;;;;;;17.13;2.60;;;7.90;99.90;;;;;;5047552;28;20190;-70
2022/02/15 05:36:33;;;;;;;26.27;3.80;;;7.90;99.90;;;;;;5045655;28;20203;-70
2022/02/15 05:39:00;;;;;;;18.63;3.95;;;7.90;99.90;;;;;;5046080;28;20211;-70
2022/02/15 05:41:31;;;;;;;26.23;4.07;;;7.90;99.90;;;;;;5046972;28;20270;-70
2022/02/15 05:43:57;;;;;;;18.70;3.85;;;7.90;99.90;;;;;;5045215;28;20288;-70
2022/02/15 05:46:23;;;;;;;27.23;4.75;;;7.90;99.90;;;;;;5044023;28;20401;-70
2022/02/15 05:48:53;;;;;;;20.00;3.80;;;8.30;99.90;;;;;;5045275;28;20656;-70
2022/02/15 05:51:33;;;;;;;20.70;4.13;;;8.20;99.90;;;;;;5045581;28;20194;-69
2022/02/15 05:54:21;;;;;;;20.55;4.13;;;8.10;99.90;;;;;;5046683;28;20194;-70
2022/02/15 05:56:49;;;;;;;21.50;3.80;;;8.00;99.90;;;;;;5046577;28;20739;-69
2022/02/15 05:59:33;;;;;;;18.92;3.83;;;7.90;99.90;;;;;;5043554;28;20202;-70
2022/02/15 06:02:04;;;;;;;20.88;3.95;;;7.90;99.90;;;;;;5030754;28;20179;-70
2022/02/15 06:04:40;;;;;;;21.85;3.70;;;7.90;99.90;;;;;;5048089;28;20206;-70
2022/02/15 06:07:13;;;;;;;18.35;3.30;;;7.90;99.90;;;;;;5046053;28;20203;-70
2022/02/15 06:09:40;;;;;;;25.83;3.92;;;7.90;99.90;;;;;;5047003;28;20179;-70
2022/02/15 06:12:06;;;;;;;16.83;4.00;;;7.80;99.90;;;;;;5047062;28;20180;-69
2022/02/15 06:14:37;;;;;;;25.85;4.53;;;7.80;99.90;;;;;;5080982;28;20191;-70
2022/02/15 06:17:06;;;;;;;11.02;4.07;;;7.80;99.90;;;;;;5045508;28;20211;-70
2022/02/15 06:19:32;;;;;;;18.55;4.35;;;7.80;99.90;;;;;;5045290;28;20479;-70
2022/02/15 06:21:57;;;;;;;12.95;4.40;;;7.80;99.90;;;;;;5046385;28;21045;-69
2022/02/15 06:24:30;;;;;;;12.65;3.90;;;7.80;99.90;;;;;;5046432;28;20183;-69
2022/02/15 06:27:03;;;;;;;15.10;3.65;;;7.80;99.90;;;;;;5046569;28;20187;-70
2022/02/15 06:29:33;;;;;;;18.02;4.28;;;7.80;99.90;;;;;;5047185;28;20187;-70
2022/02/15 06:32:04;;;;;;;17.00;3.97;;;7.80;99.90;;;;;;5045223;28;20220;-70
2022/02/15 06:34:31;;;;;;;20.60;4.13;;;7.80;99.90;;;;;;5062024;28;20206;-70
2022/02/15 06:37:02;;;;;;;21.45;4.28;;;7.80;99.90;;;;;;5046566;28;20233;-70
2022/02/15 06:39:35;;;;;;;13.75;3.45;;;7.80;99.90;;;;;;5043659;28;20225;-69
2022/02/15 06:42:01;;;;;;;16.98;4.25;;;7.80;99.90;;;;;;5047820;28;20211;-70
2022/02/15 06:44:27;;;;;;;16.00;4.35;;;7.80;99.90;;;;;;5046829;28;20641;-69
2022/02/15 06:46:55;;;;;;;16.38;4.20;;;7.80;99.90;;;;;;5045492;28;20191;-70
2022/02/15 06:49:27;;;;;;;16.73;5.10;;;7.80;99.90;;;;;;5029919;28;20540;-69
2022/02/15 06:52:28;;;;;;;16.02;5.10;;;7.70;99.90;;;;;;5004180;28;20204;-69
2022/02/15 06:55:07;;;;;;;17.95;5.35;;;7.80;99.90;;;;;;5041590;28;20218;-70
2022/02/15 06:57:39;;;;;;;19.27;5.75;;;7.70;99.90;;;;;;5045309;28;20285;-70
2022/02/15 07:00:05;;;;;;;23.70;5.80;;;7.70;99.90;;;;;;5046665;28;20278;-70
2022/02/15 07:02:35;;;;;;;22.52;5.25;;;7.70;99.90;;;;;;5045409;28;20219;-70
2022/02/15 07:05:01;;;;;;;17.15;5.60;;;7.70;99.90;;;;;;5046909;28;20597;-71
2022/02/15 07:07:26;;;;;;;18.73;5.43;;;7.70;99.90;;;;;;5047856;28;20214;-70
2022/02/15 07:09:56;;;;;;;13.00;5.32;;;7.70;99.90;;;;;;5050213;28;20274;-69
2022/02/15 07:12:35;;;;;;;17.70;5.22;;;7.70;99.90;;;;;;5049661;28;20183;-70
2022/02/15 07:15:14;;;;;;;16.77;5.20;;;7.70;99.90;;;;;;5047788;28;20183;-70
2022/02/15 07:17:45;;;;;;;16.83;5.43;;;7.70;99.90;;;;;;5048555;28;20207;-70
2022/02/15 07:20:31;;;;;;;20.83;5.57;;;7.70;99.90;;;;;;5038576;28;20230;-69
2022/02/15 07:23:26;;;;;;;22.27;5.22;;;7.70;99.90;;;;;;5012941;28;20743;-68
2022/02/15 07:26:10;;;;;;;16.08;4.85;;;7.70;99.90;;;;;;5048473;28;20213;-68
2022/02/15 07:28:40;;;;;;;22.92;4.88;;;7.70;99.90;;;;;;5047826;28;20236;-68
2022/02/15 07:31:06;;;;;;;24.77;5.32;;;7.70;99.90;;;;;;5032765;28;20579;-71
2022/02/15 07:33:32;;;;;;;21.50;3.90;;;7.70;99.90;;;;;;5047857;28;20195;-70
2022/02/15 07:35:58;;;;;;;18.33;4.53;;;7.70;99.90;;;;;;5047620;28;20191;-70
2022/02/15 07:38:23;;;;;;;19.63;4.28;;;7.70;99.90;;;;;;5050013;28;20559;-69
2022/02/15 07:40:49;;;;;;;17.73;4.00;;;7.70;99.90;;;;;;5068274;28;20254;-70
2022/02/15 07:43:15;;;;;;;12.05;3.55;;;7.80;99.90;;;;;;5052073;28;20216;-68
2022/02/15 07:45:46;;;;;;;19.55;3.20;;;7.80;99.90;;;;;;5035737;28;20556;-69
2022/02/15 07:48:12;;;;;;;15.25;3.30;;;7.80;99.90;;;;;;5069138;28;20187;-69
2022/02/15 07:50:38;;;;;;;20.25;3.20;;;7.80;99.90;;;;;;5052654;28;20652;-69
2022/02/15 07:53:05;;;;;;;19.13;3.38;;;7.80;99.90;;;;;;5070164;28;20255;-69
2022/02/15 07:55:30;;;;;;;18.55;3.00;;;7.80;99.90;;;;;;5071130;28;20190;-69
2022/02/15 07:57:56;;;;;;;19.90;3.38;;;7.80;99.90;;;;;;5069081;28;20259;-69
2022/02/15 08:00:21;;;;;;;21.80;3.65;;;7.80;99.90;;;;;;5053040;28;20247;-69
2022/02/15 08:02:49;;;;;;;14.65;2.88;;;7.80;99.90;;;;;;5070186;28;20197;-70
2022/02/15 08:05:15;;;;;;;17.52;3.38;;;7.80;99.90;;;;;;5070088;28;20972;-70
2022/02/15 08:07:49;;;;;;;20.88;3.35;;;7.80;99.90;;;;;;5084291;28;20190;-69
2022/02/15 08:10:18;;;;;;;15.82;3.70;;;7.80;99.90;;;;;;5068865;28;20201;-69
2022/02/15 08:12:47;;;;;;;14.68;3.30;;;7.80;99.90;;;;;;5067198;28;20419;-70
2022/02/15 08:15:14;;;;;;;20.23;4.03;;;8.20;99.90;;;;;;5068437;28;20419;-70
2022/02/15 08:17:39;;;;;;;20.10;3.55;;;8.60;99.90;;;;;;5067321;28;20415;-70
2022/02/15 08:20:05;;;;;;;13.07;2.78;;;8.80;99.90;;;;;;5069570;28;20655;-69
2022/02/15 08:22:31;;;;;;;21.15;2.80;;;8.60;99.90;;;;;;5068014;28;20281;-70
2022/02/15 08:24:57;;;;;;;16.67;2.40;;;8.40;99.90;;;;;;5051321;28;20286;-70
2022/02/15 08:27:22;;;;;;;18.58;3.20;;;8.30;99.90;;;;;;5068790;28;20190;-70
2022/02/15 08:29:48;;;;;;;16.60;2.90;;;8.20;99.90;;;;;;5068683;28;20186;-70
2022/02/15 08:32:15;;;;;;;18.05;2.88;;;8.20;99.90;;;;;;5052140;28;20770;-70
2022/02/15 08:34:40;;;;;;;12.18;2.33;;;8.30;99.90;;;;;;5070502;28;20197;-70
2022/02/15 08:37:06;;;;;;;;;;;8.80;99.90;;;;;;5071857;28;20044;-70
2022/02/15 08:39:32;;;;;;;;;;;9.60;99.90;;;;;;5071959;28;20012;-69
2022/02/15 08:42:04;;;;;;;;;;;10.50;99.90;;;;;;5069318;28;20003;-68
2022/02/15 08:44:34;;;;;;;;;;;10.70;99.90;;;;;;5071043;28;20341;-68
2022/02/15 08:47:00;;;;;;;;;;;10.60;99.90;;;;;;5071022;28;19931;-70
2022/02/15 08:49:26;;;;;;;;;;;10.60;99.90;;;;;;5067762;28;19958;-68
2022/02/15 08:51:52;;;;;;;;;;;10.60;99.90;;;;;;5069415;28;19912;-69
2022/02/15 08:54:18;;;;;;;;;;;11.00;99.90;;;;;;5070118;28;19931;-68
2022/02/15 08:56:44;;;;;;;;;;;11.80;99.90;;;;;;5070335;28;19961;-68
2022/02/15 08:59:09;;;;;;;;;;;12.60;99.90;;;;;;5070054;28;19912;-68
2022/02/15 09:01:35;;;;;;;;;;;13.30;99.90;;;;;;5070509;28;20412;-68
2022/02/15 09:04:00;;;;;;;17.52;2.75;;;13.40;99.90;;;;;;5069978;28;20675;-68
2022/02/15 09:06:26;;;;;;;20.17;3.10;;;13.40;99.90;;;;;;5070575;28;20189;-68
2022/02/15 09:08:52;;;;;;;19.15;3.13;;;13.40;99.90;;;;;;5068905;28;20183;-69
2022/02/15 09:11:18;;;;;;;14.35;2.58;;;13.00;99.90;;;;;;5069452;28;20095;-68
2022/02/15 09:13:44;;;;;;;13.05;2.55;;;12.60;99.90;;;;;;5069588;28;20186;-68
2022/02/15 09:16:09;;;;;;;17.90;3.10;;;12.50;99.90;;;;;;5069678;28;20697;-68
2022/02/15 09:18:35;;;;;;;;;;;12.40;99.90;;;;;;5069866;28;20035;-68
2022/02/15 09:21:01;;;;;;;;;;;12.00;97.80;;;;;;5070480;28;19909;-67
2022/02/15 09:23:27;;;;;;;;;;;11.90;98.80;;;;;;5068975;28;19913;-68
2022/02/15 09:25:53;;;;;;;;;;;12.40;98.20;;;;;;5070242;28;20335;-67
2022/02/15 09:28:19;;;;;;;;;;;12.90;98.90;;;;;;5067867;28;19915;-66
2022/02/15 09:30:46;;;;;;;13.65;2.63;;;13.30;97.90;;;;;;5051329;28;20200;-68
2022/02/15 09:33:12;;;;;;;14.63;2.35;;;13.60;99.90;;;;;;5069219;28;20213;-68
2022/02/15 09:35:38;;;;;;;19.25;3.42;;;13.80;99.10;;;;;;5067379;28;20218;-67
2022/02/15 09:38:03;;;;;;;14.07;2.70;;;13.90;97.80;;;;;;5068963;28;20268;-68
2022/02/15 09:40:29;;;;;;;13.23;2.22;;;14.20;97.20;;;;;;5067324;28;20230;-68
2022/02/15 09:42:56;;;;;;;18.80;2.15;;;14.20;95.20;;;;;;5067714;28;20175;-67
2022/02/15 09:45:21;;;;;;;13.82;2.17;;;13.70;94.00;;;;;;5067070;28;20183;-67
2022/02/15 09:47:50;;;;;;;;;;;13.30;94.30;;;;;;5069149;28;20365;-67
2022/02/15 09:50:16;;;;;;;;;;;13.00;94.10;;;;;;5069858;28;20057;-68
2022/02/15 09:52:46;;;;;;;14.40;2.50;;;12.70;92.70;;;;;;5068048;28;20863;-67
2022/02/15 09:55:12;;;;;;;15.15;2.40;;;13.70;89.90;;;;;;5068072;28;20422;-68
2022/02/15 09:57:39;;;;;;;16.40;2.50;;;14.60;82.80;;;;;;5066173;28;20850;-67
2022/02/15 10:00:05;;;;;;;10.90;2.30;;;15.60;75.20;;;;;;5068403;28;20506;-68
2022/02/15 10:02:39;;;;;;;14.50;2.40;;;16.30;69.70;;;;;;5067988;28;20187;-68
2022/02/15 10:05:05;;;;;;;10.15;1.85;;;15.50;74.90;;;;;;5068562;28;20171;-67
2022/02/15 10:07:31;;;;;;;12.57;2.00;;;15.20;77.80;;;;;;5066128;28;20900;-68
2022/02/15 10:09:59;;;;;;;13.63;2.40;;;16.30;68.10;;;;;;5049774;28;20497;-68
2022/02/15 10:12:26;;;;;;;11.90;2.23;;;17.20;62.30;;;;;;5067134;28;20411;-67
2022/02/15 10:14:55;;;;;;;13.60;2.33;;;17.70;59.70;;;;;;5068013;28;20465;-67
2022/02/15 10:17:24;;;;;;;13.40;2.23;;;17.90;58.10;;;;;;5067088;28;20458;-67
2022/02/15 10:19:50;;;;;;;13.30;2.50;;;17.70;58.70;;;;;;5068505;28;20392;-67
2022/02/15 10:22:18;;;;;;;14.38;2.42;;;18.10;58.40;;;;;;5067540;28;20838;-68
2022/02/15 10:24:58;;;;;;;11.33;2.20;;;18.90;55.40;;;;;;5067945;28;20406;-67
2022/02/15 10:27:28;;;;;;;10.65;2.10;;;19.60;52.20;;;;;;5066623;28;20506;-67
2022/02/15 10:29:55;;;;;;;10.05;1.88;;;20.20;51.10;;;;;;5068282;28;20410;-67
2022/02/15 10:32:22;;;;;;;10.68;2.10;;;20.60;48.00;;;;;;5067526;28;20926;-67
2022/02/15 10:34:50;;;;;;;7.05;1.80;;;20.80;46.20;;;;;;5065180;28;20420;-68
2022/02/15 10:37:17;;;;;;;8.18;1.85;;;20.80;44.00;;;;;;5066946;28;20419;-67
2022/02/15 10:39:54;;;;;;;8.68;1.90;;;20.50;44.60;;;;;;5067553;28;20487;-67
2022/02/15 10:42:24;;;;;;;10.15;1.83;;;20.20;45.10;;;;;;5071326;28;20425;-67
2022/02/15 10:45:05;;;;;;;10.70;1.88;;;19.30;45.30;;;;;;5071872;28;20433;-66
2022/02/15 10:47:33;;;;;;;;;;;18.20;47.90;;;;;;5071818;28;20067;-67
2022/02/15 10:49:59;;;;;;;;;;;16.50;51.30;;;;;;5055230;28;19995;-69
2022/02/15 10:52:25;;;;;;;;;;;15.50;54.30;;;;;;5073042;28;20420;-69
2022/02/15 10:54:51;;;;;;;;;;;15.10;56.80;;;;;;5054504;28;19991;-68
2022/02/15 10:57:17;;;;;;;;;;;14.90;58.00;;;;;;5072703;28;20380;-67
2022/02/15 10:59:44;;;;;;;;;;;14.80;59.00;;;;;;5073296;28;19909;-68
2022/02/15 11:02:13;;;;;;;;;;;14.80;59.90;;;;;;5072637;28;19908;-68
2022/02/15 11:04:40;;;;;;;;;;;14.90;60.60;;;;;;5072548;28;19916;-68
2022/02/15 11:07:07;;;;;;;;;;;15.00;60.80;;;;;;5071530;28;20272;-67
2022/02/15 11:09:37;;;;;;;;;;;15.00;60.10;;;;;;5072377;28;19908;-68
2022/02/15 11:12:19;;;;;;;;;;;15.00;61.00;;;;;;5072676;28;19909;-69
2022/02/15 11:14:48;;;;;;;;;;;15.20;63.50;;;;;;5072672;28;19943;-68
2022/02/15 11:17:15;;;;;;;;;;;15.40;63.00;;;;;;5071125;28;19917;-69
2022/02/15 11:19:42;;;;;;;;;;;15.50;59.80;;;;;;5072630;28;19920;-68
2022/02/15 11:22:17;;;;;;;;;;;15.40;60.40;;;;;;5071073;28;19991;-68
2022/02/15 11:24:42;;;;;;;;;;;14.90;62.50;;;;;;5072426;28;19923;-69
2022/02/15 11:27:15;;;;;;;;;;;14.40;62.90;;;;;;5071428;28;19908;-68
2022/02/15 11:29:49;;;;;;;;;;;13.90;65.50;;;;;;5071740;28;20257;-70
2022/02/15 11:32:25;;;;;;;;;;;13.50;65.80;;;;;;5070530;28;19959;-69
2022/02/15 11:34:51;;;;;;;;;;;13.00;65.00;;;;;;5071550;28;19969;-68
2022/02/15 11:37:19;;;;;;;;;;;12.70;66.20;;;;;;5052940;28;20345;-68
2022/02/15 11:39:55;;;;;;;;;;;12.50;67.30;;;;;;5072663;28;19978;-68
2022/02/15 11:42:22;;;;;;;;;;;12.30;66.10;;;;;;5071070;28;19965;-69
2022/02/15 11:44:47;;;;;;;;;;;12.10;68.00;;;;;;5071288;28;19912;-68
2022/02/15 11:47:14;;;;;;;;;;;12.10;68.00;;;;;;5071895;28;20376;-68
2022/02/15 11:49:52;;;;;;;;;;;12.10;68.60;;;;;;5071013;28;19913;-68
2022/02/15 11:52:18;;;;;;;;;;;12.30;71.70;;;;;;5052470;28;19922;-69
2022/02/15 11:54:44;;;;;;;;;;;12.50;69.30;;;;;;5071476;28;19994;-68
2022/02/15 11:57:10;;;;;;;;;;;12.60;69.80;;;;;;5070853;28;19963;-69
2022/02/15 11:59:35;;;;;;;;;;;12.70;70.10;;;;;;5071904;28;20299;-69
2022/02/15 12:02:02;;;;;;;;;;;12.80;69.10;;;;;;5070480;28;19958;-68
2022/02/15 12:04:28;;;;;;;;;;;12.60;70.00;;;;;;5071495;28;19916;-69
2022/02/15 12:06:58;;;;;;;8.75;1.17;;;12.30;71.30;;;;;;5071654;28;20188;-70
2022/02/15 12:09:28;;;;;;;14.55;1.60;;;12.10;72.20;;;;;;5070917;28;20285;-68
2022/02/15 12:11:55;;;;;;;5.72;1.30;;;11.90;72.60;;;;;;5070762;28;20182;-69
2022/02/15 12:14:22;;;;;;;9.48;1.52;;;11.90;74.20;;;;;;5069946;28;20198;-67
2022/02/15 12:16:51;;;;;;;6.35;1.48;;;11.80;75.50;;;;;;5070750;28;20702;-68
2022/02/15 12:19:33;;;;;;;10.35;1.63;;;11.90;75.50;;;;;;5069573;28;20235;-67
2022/02/15 12:22:02;;;;;;;8.35;1.42;;;11.90;76.20;;;;;;5071629;28;20270;-66
2022/02/15 12:24:31;;;;;;;11.15;1.77;;;11.90;77.00;;;;;;5069848;28;20257;-67
2022/02/15 12:27:03;;;;;;;10.60;1.67;;;11.90;77.50;;;;;;5071042;28;20259;-68
2022/02/15 12:29:29;;;;;;;13.60;1.93;;;11.90;78.30;;;;;;5036642;28;20416;-68
2022/02/15 12:31:56;;;;;;;11.82;2.08;;;12.40;79.30;;;;;;5051665;28;20458;-67
2022/02/15 12:34:22;;;;;;;14.40;1.90;;;12.10;79.90;;;;;;5069657;28;20243;-67
2022/02/15 12:36:48;;;;;;;11.32;1.45;;;12.00;81.10;;;;;;5068790;28;20590;-67
2022/02/15 12:39:14;;;;;;;9.85;1.60;;;11.90;81.70;;;;;;5068985;28;20210;-68
2022/02/15 12:41:43;;;;;;;10.35;1.45;;;11.90;82.00;;;;;;5069986;28;20206;-67
2022/02/15 12:44:10;;;;;;;9.00;1.52;;;11.80;82.70;;;;;;5069787;28;20179;-68
2022/02/15 12:46:36;;;;;;;10.57;1.85;;;11.70;83.20;;;;;;5069752;28;20667;-67
2022/02/15 12:49:07;;;;;;;11.90;2.20;;;11.60;83.60;;;;;;5051979;28;20231;-67
2022/02/15 12:51:35;;;;;;;6.85;1.75;;;11.60;84.40;;;;;;5070671;28;20598;-67
2022/02/15 12:54:02;;;;;;;10.27;1.83;;;11.50;85.20;;;;;;5068217;28;20265;-69
2022/02/15 12:56:29;;;;;;;17.83;2.38;;;11.40;86.00;;;;;;5069817;28;20408;-69
2022/02/15 12:58:58;;;;;;;12.88;1.90;;;11.90;86.50;;;;;;5070089;28;20269;-68
2022/02/15 13:01:27;;;;;;;6.28;1.67;;;11.70;87.20;;;;;;5051589;28;20187;-67
2022/02/15 13:03:55;;;;;;;16.65;2.25;;;11.50;88.70;;;;;;5050751;28;20218;-70
2022/02/15 13:06:23;;;;;;;19.17;2.03;;;11.30;89.00;;;;;;5051498;28;20201;-69
2022/02/15 13:08:51;;;;;;;17.00;2.38;;;11.30;89.40;;;;;;5051233;28;20182;-69